This is the latest recevied weather packets stored in our database for station/object W2SRH. If no packets are shown the sender has not sent any weather packets the latest 10 day(s).
| Time | Temp. | Humidity | Pressure | Rain* | Wind** | Luminosity | Snow |
|---|---|---|---|---|---|---|---|
| 1777679344 | 16.11° C | 37% | 1002.3 hPa | 0 mm | 0 m/s | - | - |
| 1777678743 | 16.11° C | 36% | 1002.2 hPa | 0 mm | 0.45 m/s, 200° | - | - |
| 1777678144 | 16.67° C | 35% | 1002.3 hPa | 0 mm | 0.89 m/s, 247° | - | - |
| 1777677543 | 16.67° C | 37% | 1002 hPa | 0 mm | 0 m/s | - | - |
| 1777676943 | 17.22° C | 36% | 1002 hPa | 0 mm | 0.45 m/s, 201° | - | - |
| 1777676344 | 17.22° C | 35% | 1002 hPa | 0 mm | 0.45 m/s, 210° | - | - |
| 1777675744 | 17.78° C | 34% | 1002 hPa | 0 mm | 0.45 m/s, 253° | - | - |
| 1777675144 | 17.78° C | 34% | 1001.9 hPa | 0 mm | 0.45 m/s, 263° | - | - |
| 1777674544 | 17.78° C | 33% | 1001.9 hPa | 0 mm | 0.45 m/s, 206° | - | - |
| 1777673945 | 18.33° C | 31% | 1002 hPa | 0 mm | 1.79 m/s, 271° | - | - |
| 1777673345 | 18.33° C | 32% | 1002 hPa | 0 mm | 0.45 m/s, 238° | - | - |
| 1777672745 | 18.33° C | 32% | 1002 hPa | 0 mm | 0.89 m/s, 268° | - | - |
| 1777672144 | 18.33° C | 32% | 1002 hPa | 0 mm | 0.89 m/s, 191° | - | - |
| 1777671543 | 18.33° C | 32% | 1002.1 hPa | 0 mm | 0.89 m/s, 238° | - | - |
| 1777670944 | 18.33° C | 32% | 1002.1 hPa | 0 mm | 0.89 m/s, 254° | - | - |
| 1777670343 | 18.33° C | 32% | 1002.2 hPa | 0 mm | 0.89 m/s, 257° | - | - |
| 1777669744 | 18.33° C | 32% | 1002.1 hPa | 0 mm | 1.34 m/s, 227° | - | - |
| 1777669144 | 17.78° C | 33% | 1002.1 hPa | 0 mm | 1.34 m/s, 243° | - | - |
| 1777668544 | 18.33° C | 32% | 1002 hPa | 0 mm | 0.45 m/s, 180° | - | - |
| 1777667943 | 19.44° C | 31% | 1002 hPa | 0 mm | 1.34 m/s, 256° | - | - |
| 1777667343 | 18.89° C | 31% | 1002.1 hPa | 0 mm | 1.34 m/s, 211° | - | - |
| 1777666745 | 18.89° C | 30% | 1002.1 hPa | 0 mm | 0.89 m/s, 341° | - | - |
| 1777666144 | 18.33° C | 31% | 1002.3 hPa | 0 mm | 0.89 m/s, 240° | - | - |
| 1777665544 | 18.89° C | 31% | 1002.2 hPa | 0 mm | 1.79 m/s, 292° | - | - |
| 1777664944 | 17.78° C | 31% | 1002.5 hPa | 0 mm | 1.79 m/s, 298° | - | - |
* Rain latest hour (hover to see other rain measurements)
** Current wind speed in m/s (hover to see current wind gust speed)